Solana Beach (660, 1081) Station Data

Red Flag Warning: No
Fire Weather Zone: 243
SDGE Region: Beach Cities
Lat/Lon: 33.007/-117.276

Observations

Time Wind Speed/Gust Temp(F) RH Fuel Moist Fuel Temp(F) Dewpt(F) Tmax(F) Tmin(F) Accum Precip 10-min Precip SL Press(mb)
4/29 11:50pm 98 7 G 9 55° 66% - - 44° 73.9° 47.4° - - 1019.0
4/29 11:40pm 96 7 G 9 55° 67% - - 44° 73.9° 47.4° - - 1019.0
4/29 11:30pm 102 7 G 9 55° 67% - - 44° 73.9° 47.4° - - 1019.0
4/29 11:20pm 98 7 G 9 56° 65% - - 45° 73.9° 47.4° - - 1019.0
4/29 11:10pm 103 6 G 8 56° 68% - - 45° 73.9° 47.4° - - 1019.0
4/29 11:00pm 99 6 G 8 56° 67% - - 46° 73.9° 47.4° - - 1019.0
4/29 10:50pm 102 5 G 6 57° 66% - - 46° 73.9° 47.4° - - 1019.0
4/29 10:40pm 107 5 G 7 57° 64% - - 45° 73.9° 47.4° - - 1019.0
4/29 10:30pm 105 5 G 7 58° 63% - - 45° 73.9° 47.4° - - 1019.0
4/29 10:20pm 101 5 G 7 58° 63% - - 46° 73.9° 47.4° - - 1019.0
4/29 10:10pm 98 5 G 7 60° 58% - - 45° 73.9° 47.4° - - 1019.0
4/29 10:00pm 99 5 G 7 60° 60% - - 46° 73.9° 47.4° - - 1018.0
4/29 9:50pm 91 2 G 4 64° 55% - - 47° 73.9° 47.4° - - 1018.0
4/29 9:40pm 161 1 G 2 65° 50% - - 46° 73.9° 47.4° - - 1018.0
4/29 9:30pm 110 4 G 8 65° 50% - - 46° 73.9° 47.4° - - 1018.0
4/29 9:20pm 318 4 G 5 66° 49% - - 47° 73.9° 47.4° - - 1018.0
4/29 9:10pm 339 3 G 5 66° 54% - - 49° 73.9° 47.4° - - 1018.0
4/29 9:00pm 326 5 G 8 66° 56% - - 50° 73.9° 47.4° - - 1018.0
4/29 8:50pm 316 6 G 11 66° 57% - - 50° 73.9° 47.4° - - 1018.0
4/29 8:40pm 325 7 G 11 66° 58% - - 50° 73.9° 47.4° - - 1018.0
4/29 8:30pm 328 8 G 11 66° 58% - - 50° 73.9° 47.4° - - 1018.0
4/29 8:20pm 328 9 G 12 66° 57% - - 50° 73.9° 47.4° - - 1017.0
4/29 8:10pm 328 8 G 11 66° 56% - - 50° 73.9° 47.4° - - 1017.0
4/29 8:00pm 326 8 G 11 66° 55% - - 50° 73.9° 47.4° - - 1017.0
4/29 7:50pm 328 8 G 11 67° 51% - - 48° 73.9° 47.4° - - 1017.0
4/29 7:40pm 333 7 G 11 67° 47% - - 47° 73.9° 47.4° - - 1017.0
4/29 7:30pm 329 7 G 10 67° 48% - - 47° 73.9° 47.4° - - 1017.0
4/29 7:20pm 326 9 G 11 68° 48% - - 47° 73.9° 47.4° - - 1017.0
4/29 7:10pm 327 10 G 13 69° 45% - - 47° 73.9° 47.4° - - 1017.0
4/29 7:00pm 334 8 G 13 69° 46% - - 48° 73.9° 47.4° - - 1016.0
4/29 6:50pm 321 6 G 10 69° 54% - - 52° 73.9° 47.4° - - 1016.0
4/29 6:40pm 306 5 G 8 69° 56% - - 53° 73.9° 47.4° - - 1016.0
4/29 6:30pm 288 5 G 8 69° 55% - - 52° 73.9° 47.4° - - 1016.0
4/29 6:20pm 242 4 G 6 69° 59% - - 54° 73.9° 47.4° - - 1016.0
4/29 6:10pm 245 4 G 5 70° 52% - - 52° 73.9° 47.4° - - 1016.0
4/29 6:00pm 250 4 G 5 70° 53% - - 52° 73.9° 47.4° - - 1016.0
4/29 5:50pm 243 3 G 5 70° 55% - - 53° 73.9° 47.4° - - 1016.0
4/29 5:40pm 261 3 G 5 70° 55% - - 53° 73.9° 47.4° - - 1016.0
4/29 5:30pm 262 3 G 5 70° 56% - - 53° 73.9° 47.4° - - 1016.0
4/29 5:20pm 272 3 G 5 70° 55% - - 53° 73.9° 47.4° - - 1016.0
4/29 5:10pm 259 4 G 6 70° 55% - - 53° 73.9° 47.4° - - 1016.0
4/29 5:00pm 232 4 G 7 70° 55% - - 53° 73.9° 47.4° - - 1016.0
4/29 4:50pm 262 4 G 7 70° 57% - - 54° 73.9° 47.4° - - 1015.0
4/29 4:40pm 265 3 G 5 70° 56% - - 53° 73.9° 47.4° - - 1015.0
4/29 4:30pm 286 3 G 5 70° 55% - - 53° 73.9° 47.4° - - 1015.0
4/29 4:20pm 291 4 G 6 70° 55% - - 53° 73.9° 47.4° - - 1016.0
4/29 4:10pm 307 4 G 6 71° 51% - - 52° 73.9° 47.4° - - 1016.0
4/29 4:00pm 298 5 G 7 71° 47% - - 50° 73.9° 47.4° - - 1016.0
4/29 3:50pm 296 5 G 9 71° 46% - - 50° 73.9° 47.4° - - 1016.0
4/29 3:40pm 296 6 G 9 72° 46% - - 50° 73.9° 47.4° - - 1016.0
4/29 3:30pm 297 4 G 7 71° 51% - - 51° 73.9° 47.4° - - 1016.0
4/29 3:20pm 296 4 G 6 71° 54% - - 53° 73.9° 47.4° - - 1016.0
4/29 3:10pm 286 4 G 6 70° 55% - - 53° 73.9° 47.4° - - 1016.0
4/29 3:00pm 266 3 G 5 70° 55% - - 54° 73.9° 47.4° - - 1016.0
4/29 2:50pm 307 5 G 7 71° 53% - - 53° 73.9° 47.4° - - 1016.0
4/29 2:40pm 286 6 G 8 71° 52% - - 52° 73.9° 47.4° - - 1016.0
4/29 2:30pm 262 4 G 6 71° 52% - - 52° 73.9° 47.4° - - 1016.0
4/29 2:20pm 293 6 G 9 71° 48% - - 50° 73.9° 47.4° - - 1016.0
4/29 2:10pm 269 5 G 9 71° 48% - - 50° 73.9° 47.4° - - 1016.0
4/29 2:00pm 282 6 G 9 71° 44% - - 48° 73.9° 47.4° - - 1016.0
4/29 1:50pm 269 4 G 9 71° 49% - - 51° 73.9° 47.4° - - 1016.0
4/29 1:40pm 289 6 G 9 70° 47% - - 49° 73.9° 47.4° - - 1016.0
4/29 1:30pm 256 4 G 6 70° 55% - - 53° 73.9° 47.4° - - 1016.0
4/29 1:20pm 251 7 G 9 70° 48% - - 49° 73.9° 47.4° - - 1016.0
4/29 1:10pm 241 6 G 9 70° 51% - - 50° 73.9° 47.4° - - 1016.0
4/29 1:00pm 261 7 G 10 70° 52% - - 52° 73.9° 47.4° - - 1016.0
4/29 12:50pm 284 6 G 9 69° 59% - - 54° 73.9° 47.4° - - 1016.0
4/29 12:40pm 300 6 G 10 69° 61% - - 55° 73.9° 47.4° - - 1016.0
4/29 12:30pm 304 8 G 13 70° 57% - - 54° 73.9° 47.4° - - 1016.0
4/29 12:20pm 262 9 G 12 69° 60% - - 55° 73.9° 47.4° - - 1016.0
4/29 12:10pm 245 7 G 11 70° 56% - - 54° 73.9° 47.4° - - 1016.0
4/29 12:00pm 275 9 G 13 71° 50% - - 51° 73.9° 47.4° - - 1016.0
4/29 11:50am 272 10 G 14 71° 48% - - 50° 73.9° 47.4° - - 1016.0
4/29 11:40am 267 9 G 12 71° 48% - - 50° 73.9° 47.4° - - 1016.0
4/29 11:30am 270 8 G 11 71° 49% - - 50° 73.9° 47.4° - - 1016.0
4/29 11:20am 271 9 G 12 70° 46% - - 49° 73.9° 47.4° - - 1016.0
4/29 11:10am 281 9 G 12 71° 43% - - 47° 73.9° 47.4° - - 1016.0
4/29 11:00am 273 8 G 11 71° 42% - - 47° 73.9° 47.4° - - 1016.0
4/29 10:50am 262 7 G 10 71° 41% - - 46° 73.9° 47.4° - - 1016.0
4/29 10:40am 280 7 G 9 73° 27% - - 37° 73.9° 47.4° - - 1016.0
4/29 10:30am 280 7 G 9 73° 26% - - 35° 73.6° 47.4° - - 1016.0
4/29 10:20am 282 6 G 9 72° 27% - - 36° 72.9° 47.4° - - 1016.0
4/29 10:10am 288 7 G 9 71° 32% - - 39° 72.1° 47.4° - - 1015.0
4/29 10:00am 283 5 G 7 71° 32% - - 40° 72.1° 47.4° - - 1016.0
4/29 9:50am 285 5 G 7 71° 30% - - 38° 72.1° 47.4° - - 1015.0
4/29 9:40am 270 5 G 7 71° 28% - - 36° 72.1° 47.4° - - 1015.0
4/29 9:30am 259 4 G 5 70° 29% - - 36° 72.1° 47.4° - - 1015.0
4/29 9:20am 265 4 G 5 70° 35% - - 41° 72.1° 47.4° - - 1015.0
4/29 9:10am 252 3 G 5 71° 37% - - 43° 72.1° 47.4° - - 1015.0
4/29 9:00am 265 1 G 3 71° 35% - - 42° 72° 47.4° - - 1015.0
4/29 8:50am 115 2 G 5 69° 37% - - 42° 70.8° 47.4° - - 1015.0
4/29 8:40am 107 3 G 5 67° 42% - - 43° 68.5° 47.4° - - 1015.0
4/29 8:30am 103 4 G 5 65° 47% - - 44° 66.4° 47.4° - - 1015.0
4/29 8:20am 104 4 G 7 62° 50% - - 44° 63.9° 47.4° - - 1015.0
4/29 8:10am 89 6 G 8 60° 55% - - 44° 61.5° 47.4° - - 1015.0
4/29 8:00am 105 5 G 7 59° 60% - - 45° 60° 47.4° - - 1015.0
4/29 7:50am 106 4 G 6 56° 64% - - 44° 58° 47.4° - - 1015.0
4/29 7:40am 103 6 G 9 54° 71% - - 45° 57.7° 47.4° - - 1015.0
4/29 7:30am 108 7 G 10 53° 73% - - 44° 57.7° 47.4° - - 1015.0
4/29 7:20am 107 7 G 9 51° 79% - - 45° 57.7° 47.4° - - 1014.0
4/29 7:10am 99 7 G 10 51° 73% - - 43° 57.7° 47.4° - - 1014.0
4/29 7:00am 90 7 G 10 49° 78% - - 43° 57.7° 47.4° - - 1014.0
4/29 6:50am 98 7 G 10 49° 79% - - 43° 57.7° 47.4° - - 1014.0
4/29 6:40am 97 7 G 10 48° 86% - - 44° 57.7° 47.4° - - 1014.0
4/29 6:30am 96 6 G 9 48° 87% - - 44° 57.7° 47.4° - - 1014.0
4/29 6:20am 101 6 G 8 48° 87% - - 44° 57.7° 47.4° - - 1014.0
4/29 6:10am 97 7 G 9 48° 86% - - 44° 57.7° 47.6° - - 1014.0
4/29 6:00am 91 7 G 10 49° 84% - - 44° 57.7° 48.3° - - 1014.0
4/29 5:50am 96 7 G 9 49° 84% - - 45° 57.7° 48.3° - - 1013.0
4/29 5:40am 82 8 G 10 49° 85% - - 45° 57.7° 48.3° - - 1013.0
4/29 5:30am 98 8 G 11 49° 88% - - 45° 57.7° 48.3° - - 1013.0
4/29 5:20am 97 8 G 11 49° 88% - - 46° 57.7° 48.4° - - 1013.0
4/29 5:10am 88 7 G 9 49° 88% - - 46° 57.7° 48.7° - - 1013.0
4/29 5:00am 95 7 G 11 50° 89% - - 46° 57.7° 48.8° - - 1013.0
4/29 4:50am 90 8 G 10 50° 86% - - 46° 57.7° 49.3° - - 1013.0
4/29 4:40am 91 8 G 10 50° 89% - - 47° 57.7° 49.3° - - 1013.0
4/29 4:30am 93 7 G 10 50° 91% - - 47° 57.7° 49.3° - - 1013.0
4/29 4:20am 93 7 G 11 51° 87% - - 47° 57.7° 49.9° - - 1012.0
4/29 4:10am 88 9 G 11 52° 86% - - 47° 57.7° 50.2° - - 1012.0
4/29 4:00am 97 8 G 11 51° 88% - - 48° 57.7° 50.2° - - 1012.0
4/29 3:50am 99 6 G 9 51° 91% - - 48° 57.7° 50.2° - - 1012.0
4/29 3:40am 93 8 G 11 51° 89% - - 48° 57.7° 50.2° - - 1012.0
4/29 3:30am 90 7 G 9 51° 89% - - 48° 57.7° 50.8° - - 1012.0
4/29 3:20am 91 7 G 10 52° 88% - - 49° 57.7° 51.3° - - 1012.0
4/29 3:10am 96 6 G 9 53° 84% - - 49° 57.7° 52.4° - - 1012.0
4/29 3:00am 97 5 G 7 53° 86% - - 49° 57.7° 52.4° - - 1012.0
4/29 2:50am 84 8 G 10 53° 86% - - 49° 57.7° 52.4° - - 1012.0
4/29 2:40am 83 7 G 9 53° 86% - - 49° 57.7° 52.4° - - 1012.0
4/29 2:30am 89 7 G 9 54° 86% - - 50° 57.7° 53.2° - - 1011.0
4/29 2:20am 95 7 G 11 54° 85% - - 50° 57.7° 53.5° - - 1011.0
4/29 2:10am 103 7 G 10 54° 86% - - 50° 57.7° 53.5° - - 1011.0
4/29 2:00am 91 7 G 9 55° 82% - - 50° 57.7° 53.5° - - 1011.0
4/29 1:50am 77 7 G 9 54° 87% - - 50° 57.7° 53.5° - - 1011.0
4/29 1:40am 96 7 G 10 54° 86% - - 50° 57.7° 53.6° - - 1011.0
4/29 1:30am 96 6 G 8 55° 85% - - 50° 57.7° 53.9° - - 1011.0
4/29 1:20am 95 7 G 10 54° 86% - - 50° 57.7° 53.9° - - 1012.0
4/29 1:10am 93 7 G 9 55° 87% - - 51° 57.7° 54.1° - - 1011.0
4/29 1:00am 100 7 G 9 55° 86% - - 51° 57.7° 54.7° - - 1011.0
4/29 12:50am 98 5 G 9 55° 85% - - 51° 57.7° 54.7° - - 1011.0
4/29 12:40am 91 7 G 10 56° 82% - - 51° 57.7° 54.8° - - 1011.0
4/29 12:30am 105 5 G 7 56° 85% - - 51° 57.7° 55.1° - - 1011.0
4/29 12:20am 102 5 G 7 56° 86% - - 51° 57.7° 55.1° - - 1011.0
4/29 12:10am 99 5 G 7 57° 82% - - 51° 57.7° 56° - - 1011.0
4/29 12:00am 91 5 G 6 57° 80% - - 51° 68.7° 54.6° - - 1011.0
4/28 11:50pm 92 6 G 7 57° 81% - - 51° 68.7° 54.6° - - 1011.0
4/28 11:40pm 94 6 G 7 58° 81% - - 52° 68.7° 54.6° - - 1011.0
4/28 11:30pm 103 5 G 7 57° 84% - - 52° 68.7° 54.6° - - 1011.0
4/28 11:20pm 93 5 G 6 57° 84% - - 52° 68.7° 54.6° - - 1011.0
4/28 11:10pm 101 5 G 7 57° 84% - - 52° 68.7° 54.6° - - 1011.0
4/28 11:00pm 104 5 G 8 56° 85% - - 52° 68.7° 54.6° - - 1011.0
4/28 10:50pm 98 5 G 7 57° 84% - - 52° 68.7° 54.6° - - 1010.0
4/28 10:40pm 100 4 G 7 58° 81% - - 53° 68.7° 54.6° - - 1011.0
4/28 10:30pm 119 3 G 4 58° 81% - - 52° 68.7° 54.6° - - 1011.0
4/28 10:20pm 105 3 G 4 59° 81% - - 53° 68.7° 54.6° - - 1011.0
4/28 10:10pm 107 3 G 4 60° 78% - - 53° 68.7° 54.6° - - 1011.0
4/28 10:00pm 94 3 G 5 60° 80% - - 53° 68.7° 54.6° - - 1010.0
4/28 9:50pm 102 2 G 4 60° 78% - - 53° 68.7° 54.6° - - 1010.0
4/28 9:40pm 111 3 G 5 61° 75% - - 53° 68.7° 54.6° - - 1010.0
4/28 9:30pm 107 4 G 5 61° 75% - - 53° 68.7° 54.6° - - 1010.0
4/28 9:20pm 116 3 G 5 61° 73% - - 53° 68.7° 54.6° - - 1010.0
4/28 9:10pm 106 4 G 5 61° 75% - - 53° 68.7° 54.6° - - 1010.0
4/28 9:00pm 101 3 G 7 63° 77% - - 55° 68.7° 54.6° - - 1010.0
4/28 8:50pm 104 2 G 5 63° 77% - - 56° 68.7° 54.6° - - 1009.0
4/28 8:40pm 186 3 G 5 64° 80% - - 58° 68.7° 54.6° - - 1009.0
4/28 8:30pm 175 4 G 8 64° 81% - - 59° 68.7° 54.6° - - 1009.0
4/28 8:20pm 223 4 G 8 66° 72% - - 56° 68.7° 54.6° - - 1009.0
4/28 8:10pm 253 1 G 4 65° 70% - - 55° 68.7° 54.6° - - 1009.0
4/28 8:00pm 70 1 G 2 65° 68% - - 54° 68.7° 54.6° - - 1009.0
4/28 7:50pm 117 3 G 4 65° 69% - - 54° 68.7° 54.6° - - 1009.0
4/28 7:40pm 211 2 G 4 66° 71% - - 56° 68.7° 54.6° - - 1009.0
4/28 7:30pm 237 1 G 3 66° 69% - - 55° 68.7° 54.6° - - 1009.0
4/28 7:20pm 173 1 G 3 65° 70% - - 55° 68.7° 54.6° - - 1009.0
4/28 7:10pm 227 3 G 5 65° 75% - - 57° 68.7° 54.6° - - 1009.0
4/28 7:00pm 252 3 G 5 65° 73% - - 57° 68.7° 54.6° - - 1009.0
4/28 6:50pm 242 2 G 4 66° 73% - - 57° 68.7° 54.6° - - 1009.0
4/28 6:40pm 273 2 G 3 66° 71% - - 57° 68.7° 54.6° - - 1009.0
4/28 6:30pm 300 4 G 6 67° 70% - - 57° 68.7° 54.6° - - 1008.0
4/28 6:20pm 294 3 G 5 66° 70% - - 56° 68.7° 54.6° - - 1008.0
4/28 6:10pm 289 4 G 6 66° 70% - - 56° 68.7° 54.6° - - 1008.0
4/28 6:00pm 315 5 G 7 66° 71% - - 57° 68.7° 54.6° - - 1008.0